sensor_id;sensor_type;location;lat;lon;timestamp;temperature;humidity
68274;SHT30;55104;47.356;19.448;2023-03-01T00:00:50;3.67;76.90
68274;SHT30;55104;47.356;19.448;2023-03-01T00:03:52;3.66;76.98
68274;SHT30;55104;47.356;19.448;2023-03-01T00:06:55;3.67;76.81
68274;SHT30;55104;47.356;19.448;2023-03-01T00:09:57;3.69;76.98
68274;SHT30;55104;47.356;19.448;2023-03-01T00:12:59;3.66;77.06
68274;SHT30;55104;47.356;19.448;2023-03-01T00:16:06;3.64;77.03
68274;SHT30;55104;47.356;19.448;2023-03-01T00:19:15;3.70;76.86
68274;SHT30;55104;47.356;19.448;2023-03-01T00:22:17;3.70;76.56
68274;SHT30;55104;47.356;19.448;2023-03-01T00:25:19;3.70;76.66
68274;SHT30;55104;47.356;19.448;2023-03-01T00:28:22;3.70;76.79
68274;SHT30;55104;47.356;19.448;2023-03-01T00:31:27;3.71;76.56
68274;SHT30;55104;47.356;19.448;2023-03-01T00:34:29;3.73;76.33
68274;SHT30;55104;47.356;19.448;2023-03-01T00:37:31;3.71;76.59
68274;SHT30;55104;47.356;19.448;2023-03-01T00:40:35;3.67;76.55
68274;SHT30;55104;47.356;19.448;2023-03-01T00:43:38;3.66;76.69
68274;SHT30;55104;47.356;19.448;2023-03-01T00:46:40;3.66;76.34
68274;SHT30;55104;47.356;19.448;2023-03-01T00:49:42;3.62;76.31
68274;SHT30;55104;47.356;19.448;2023-03-01T00:52:45;3.63;76.39
68274;SHT30;55104;47.356;19.448;2023-03-01T00:55:47;3.63;76.52
68274;SHT30;55104;47.356;19.448;2023-03-01T00:58:49;3.64;76.41
68274;SHT30;55104;47.356;19.448;2023-03-01T01:01:51;3.71;76.09
68274;SHT30;55104;47.356;19.448;2023-03-01T01:04:53;3.76;75.64
68274;SHT30;55104;47.356;19.448;2023-03-01T01:07:56;3.70;75.91
68274;SHT30;55104;47.356;19.448;2023-03-01T01:10:59;3.67;75.99
68274;SHT30;55104;47.356;19.448;2023-03-01T01:14:02;3.69;76.17
68274;SHT30;55104;47.356;19.448;2023-03-01T01:17:04;3.70;76.27
68274;SHT30;55104;47.356;19.448;2023-03-01T01:20:07;3.70;76.49
68274;SHT30;55104;47.356;19.448;2023-03-01T01:23:12;3.69;75.94
68274;SHT30;55104;47.356;19.448;2023-03-01T01:26:26;3.76;75.65
68274;SHT30;55104;47.356;19.448;2023-03-01T01:29:28;3.78;75.44
68274;SHT30;55104;47.356;19.448;2023-03-01T01:32:30;3.77;75.34
68274;SHT30;55104;47.356;19.448;2023-03-01T01:35:32;3.73;75.57
68274;SHT30;55104;47.356;19.448;2023-03-01T01:38:36;3.73;75.68
68274;SHT30;55104;47.356;19.448;2023-03-01T01:41:40;3.74;75.65
68274;SHT30;55104;47.356;19.448;2023-03-01T01:44:47;3.69;75.80
68274;SHT30;55104;47.356;19.448;2023-03-01T01:47:50;3.71;75.77
68274;SHT30;55104;47.356;19.448;2023-03-01T01:50:57;3.69;75.91
68274;SHT30;55104;47.356;19.448;2023-03-01T01:54:00;3.67;76.05
68274;SHT30;55104;47.356;19.448;2023-03-01T01:57:07;3.70;75.68
68274;SHT30;55104;47.356;19.448;2023-03-01T02:03:30;3.67;75.69
68274;SHT30;55104;47.356;19.448;2023-03-01T02:06:49;3.69;75.47
68274;SHT30;55104;47.356;19.448;2023-03-01T02:09:53;3.71;74.94
68274;SHT30;55104;47.356;19.448;2023-03-01T02:12:55;3.67;75.37
68274;SHT30;55104;47.356;19.448;2023-03-01T02:15:58;3.62;75.20
68274;SHT30;55104;47.356;19.448;2023-03-01T02:19:00;3.64;74.78
68274;SHT30;55104;47.356;19.448;2023-03-01T02:22:33;3.69;74.84
68274;SHT30;55104;47.356;19.448;2023-03-01T02:26:03;3.62;75.25
68274;SHT30;55104;47.356;19.448;2023-03-01T02:29:09;3.63;75.64
68274;SHT30;55104;47.356;19.448;2023-03-01T02:32:12;3.57;75.77
68274;SHT30;55104;47.356;19.448;2023-03-01T02:35:16;3.53;76.15
68274;SHT30;55104;47.356;19.448;2023-03-01T02:38:19;3.57;76.09
68274;SHT30;55104;47.356;19.448;2023-03-01T02:41:24;3.52;76.43
68274;SHT30;55104;47.356;19.448;2023-03-01T02:44:28;3.52;76.52
68274;SHT30;55104;47.356;19.448;2023-03-01T02:47:30;3.56;76.67
68274;SHT30;55104;47.356;19.448;2023-03-01T02:50:49;3.57;76.81
68274;SHT30;55104;47.356;19.448;2023-03-01T02:54:13;3.55;77.04
68274;SHT30;55104;47.356;19.448;2023-03-01T02:57:18;3.50;77.02
68274;SHT30;55104;47.356;19.448;2023-03-01T03:00:28;3.50;77.38
68274;SHT30;55104;47.356;19.448;2023-03-01T03:03:32;3.50;77.44
68274;SHT30;55104;47.356;19.448;2023-03-01T03:06:35;3.52;77.38
68274;SHT30;55104;47.356;19.448;2023-03-01T03:09:40;3.49;77.61
68274;SHT30;55104;47.356;19.448;2023-03-01T03:12:42;3.46;77.66
68274;SHT30;55104;47.356;19.448;2023-03-01T03:15:44;3.47;77.69
68274;SHT30;55104;47.356;19.448;2023-03-01T03:18:47;3.50;77.68
68274;SHT30;55104;47.356;19.448;2023-03-01T03:21:49;3.55;77.40
68274;SHT30;55104;47.356;19.448;2023-03-01T03:24:51;3.50;77.78
68274;SHT30;55104;47.356;19.448;2023-03-01T03:27:55;3.49;77.85
68274;SHT30;55104;47.356;19.448;2023-03-01T03:31:05;3.52;77.95
68274;SHT30;55104;47.356;19.448;2023-03-01T03:34:08;3.46;78.01
68274;SHT30;55104;47.356;19.448;2023-03-01T03:37:12;3.46;77.94
68274;SHT30;55104;47.356;19.448;2023-03-01T03:40:36;3.40;78.24
68274;SHT30;55104;47.356;19.448;2023-03-01T03:43:39;3.42;78.47
68274;SHT30;55104;47.356;19.448;2023-03-01T03:46:42;3.43;78.64
68274;SHT30;55104;47.356;19.448;2023-03-01T03:49:44;3.38;78.70
68274;SHT30;55104;47.356;19.448;2023-03-01T03:52:47;3.38;78.80
68274;SHT30;55104;47.356;19.448;2023-03-01T03:55:49;3.30;79.05
68274;SHT30;55104;47.356;19.448;2023-03-01T03:58:52;3.33;78.87
68274;SHT30;55104;47.356;19.448;2023-03-01T04:01:54;3.36;78.88
68274;SHT30;55104;47.356;19.448;2023-03-01T04:04:56;3.40;78.88
68274;SHT30;55104;47.356;19.448;2023-03-01T04:07:58;3.38;78.63
68274;SHT30;55104;47.356;19.448;2023-03-01T04:11:04;3.33;78.82
68274;SHT30;55104;47.356;19.448;2023-03-01T04:14:25;3.30;79.14
68274;SHT30;55104;47.356;19.448;2023-03-01T04:17:27;3.33;78.99
68274;SHT30;55104;47.356;19.448;2023-03-01T04:20:32;3.35;78.99
68274;SHT30;55104;47.356;19.448;2023-03-01T04:23:36;3.36;78.81
68274;SHT30;55104;47.356;19.448;2023-03-01T04:26:38;3.35;79.05
68274;SHT30;55104;47.356;19.448;2023-03-01T04:29:40;3.36;79.20
68274;SHT30;55104;47.356;19.448;2023-03-01T04:32:42;3.26;79.42
68274;SHT30;55104;47.356;19.448;2023-03-01T04:35:45;3.28;79.43
68274;SHT30;55104;47.356;19.448;2023-03-01T04:38:48;3.25;79.48
68274;SHT30;55104;47.356;19.448;2023-03-01T04:41:50;3.19;79.43
68274;SHT30;55104;47.356;19.448;2023-03-01T04:44:52;3.25;79.68
68274;SHT30;55104;47.356;19.448;2023-03-01T04:47:54;3.23;79.58
68274;SHT30;55104;47.356;19.448;2023-03-01T04:51:00;3.26;79.43
68274;SHT30;55104;47.356;19.448;2023-03-01T04:54:02;3.32;79.11
68274;SHT30;55104;47.356;19.448;2023-03-01T04:57:04;3.28;79.11
68274;SHT30;55104;47.356;19.448;2023-03-01T05:00:12;3.30;79.25
68274;SHT30;55104;47.356;19.448;2023-03-01T05:03:23;3.30;78.77
68274;SHT30;55104;47.356;19.448;2023-03-01T05:06:25;3.29;79.20
68274;SHT30;55104;47.356;19.448;2023-03-01T05:09:28;3.30;79.01
68274;SHT30;55104;47.356;19.448;2023-03-01T05:12:30;3.29;78.99
68274;SHT30;55104;47.356;19.448;2023-03-01T05:15:32;3.30;79.00
68274;SHT30;55104;47.356;19.448;2023-03-01T05:18:34;3.30;78.79
68274;SHT30;55104;47.356;19.448;2023-03-01T05:21:39;3.32;78.62
68274;SHT30;55104;47.356;19.448;2023-03-01T05:25:02;3.32;78.15
68274;SHT30;55104;47.356;19.448;2023-03-01T05:28:04;3.30;78.40
68274;SHT30;55104;47.356;19.448;2023-03-01T05:31:07;3.30;78.17
68274;SHT30;55104;47.356;19.448;2023-03-01T05:34:11;3.29;78.41
68274;SHT30;55104;47.356;19.448;2023-03-01T05:37:14;3.32;78.30
68274;SHT30;55104;47.356;19.448;2023-03-01T05:40:21;3.29;78.13
68274;SHT30;55104;47.356;19.448;2023-03-01T05:43:25;3.33;77.65
68274;SHT30;55104;47.356;19.448;2023-03-01T05:46:27;3.32;77.54
68274;SHT30;55104;47.356;19.448;2023-03-01T05:49:31;3.39;77.32
68274;SHT30;55104;47.356;19.448;2023-03-01T05:52:34;3.40;77.09
68274;SHT30;55104;47.356;19.448;2023-03-01T05:55:36;3.36;76.73
68274;SHT30;55104;47.356;19.448;2023-03-01T05:58:39;3.40;76.68
68274;SHT30;55104;47.356;19.448;2023-03-01T06:01:41;3.44;76.70
68274;SHT30;55104;47.356;19.448;2023-03-01T06:04:42;3.46;76.21
68274;SHT30;55104;47.356;19.448;2023-03-01T06:07:45;3.49;76.39
68274;SHT30;55104;47.356;19.448;2023-03-01T06:10:47;3.57;75.92
68274;SHT30;55104;47.356;19.448;2023-03-01T06:13:50;3.62;75.45
68274;SHT30;55104;47.356;19.448;2023-03-01T06:16:51;3.69;75.36
68274;SHT30;55104;47.356;19.448;2023-03-01T06:19:53;3.71;74.58
68274;SHT30;55104;47.356;19.448;2023-03-01T06:22:56;3.83;74.41
68274;SHT30;55104;47.356;19.448;2023-03-01T06:25:58;3.83;74.77
68274;SHT30;55104;47.356;19.448;2023-03-01T06:29:01;3.97;75.00
68274;SHT30;55104;47.356;19.448;2023-03-01T06:32:03;4.02;74.59
68274;SHT30;55104;47.356;19.448;2023-03-01T06:35:05;4.11;74.49
68274;SHT30;55104;47.356;19.448;2023-03-01T06:38:07;4.19;73.94
68274;SHT30;55104;47.356;19.448;2023-03-01T06:41:10;4.21;73.95
68274;SHT30;55104;47.356;19.448;2023-03-01T06:44:12;4.30;73.86
68274;SHT30;55104;47.356;19.448;2023-03-01T06:47:14;4.40;73.68
68274;SHT30;55104;47.356;19.448;2023-03-01T06:50:17;4.45;73.46
68274;SHT30;55104;47.356;19.448;2023-03-01T06:53:19;4.53;73.63
68274;SHT30;55104;47.356;19.448;2023-03-01T06:56:21;4.61;72.57
68274;SHT30;55104;47.356;19.448;2023-03-01T06:59:24;4.54;72.28
68274;SHT30;55104;47.356;19.448;2023-03-01T07:02:25;4.66;72.48
68274;SHT30;55104;47.356;19.448;2023-03-01T07:05:28;4.78;71.90
68274;SHT30;55104;47.356;19.448;2023-03-01T07:08:30;4.76;71.52
68274;SHT30;55104;47.356;19.448;2023-03-01T07:11:33;4.81;71.44
68274;SHT30;55104;47.356;19.448;2023-03-01T07:14:35;4.80;71.73
68274;SHT30;55104;47.356;19.448;2023-03-01T07:17:37;4.89;71.35
68274;SHT30;55104;47.356;19.448;2023-03-01T07:20:39;4.91;72.35
68274;SHT30;55104;47.356;19.448;2023-03-01T07:23:42;4.95;71.67
68274;SHT30;55104;47.356;19.448;2023-03-01T07:26:44;5.01;72.16
68274;SHT30;55104;47.356;19.448;2023-03-01T07:29:49;5.08;71.55
68274;SHT30;55104;47.356;19.448;2023-03-01T07:32:51;5.04;72.02
68274;SHT30;55104;47.356;19.448;2023-03-01T07:36:01;5.12;71.41
68274;SHT30;55104;47.356;19.448;2023-03-01T07:39:03;5.16;71.49
68274;SHT30;55104;47.356;19.448;2023-03-01T07:42:06;5.29;71.54
68274;SHT30;55104;47.356;19.448;2023-03-01T07:45:08;5.52;70.51
68274;SHT30;55104;47.356;19.448;2023-03-01T07:48:10;5.50;69.94
68274;SHT30;55104;47.356;19.448;2023-03-01T07:51:13;5.50;69.77
68274;SHT30;55104;47.356;19.448;2023-03-01T07:54:15;5.60;69.51
68274;SHT30;55104;47.356;19.448;2023-03-01T07:57:18;5.56;69.29
68274;SHT30;55104;47.356;19.448;2023-03-01T08:00:21;5.66;69.44
68274;SHT30;55104;47.356;19.448;2023-03-01T08:03:24;5.71;69.11
68274;SHT30;55104;47.356;19.448;2023-03-01T08:06:26;5.74;68.66
68274;SHT30;55104;47.356;19.448;2023-03-01T08:09:28;5.67;67.99
68274;SHT30;55104;47.356;19.448;2023-03-01T08:12:30;5.93;68.20
68274;SHT30;55104;47.356;19.448;2023-03-01T08:15:32;6.09;66.99
68274;SHT30;55104;47.356;19.448;2023-03-01T08:18:34;6.04;65.94
68274;SHT30;55104;47.356;19.448;2023-03-01T08:21:37;6.19;66.36
68274;SHT30;55104;47.356;19.448;2023-03-01T08:24:39;6.49;66.34
68274;SHT30;55104;47.356;19.448;2023-03-01T08:27:41;6.60;64.08
68274;SHT30;55104;47.356;19.448;2023-03-01T08:30:45;6.67;63.92
68274;SHT30;55104;47.356;19.448;2023-03-01T08:33:49;6.60;62.62
68274;SHT30;55104;47.356;19.448;2023-03-01T08:36:57;6.53;63.10
68274;SHT30;55104;47.356;19.448;2023-03-01T08:39:59;6.50;62.58
68274;SHT30;55104;47.356;19.448;2023-03-01T08:43:02;6.60;62.32
68274;SHT30;55104;47.356;19.448;2023-03-01T08:46:05;6.70;62.27
68274;SHT30;55104;47.356;19.448;2023-03-01T08:49:11;6.49;62.28
68274;SHT30;55104;47.356;19.448;2023-03-01T08:52:13;6.63;62.16
68274;SHT30;55104;47.356;19.448;2023-03-01T08:55:16;6.83;62.14
68274;SHT30;55104;47.356;19.448;2023-03-01T08:58:18;6.99;60.72
68274;SHT30;55104;47.356;19.448;2023-03-01T09:01:21;7.18;61.11
68274;SHT30;55104;47.356;19.448;2023-03-01T09:04:23;7.14;60.29
68274;SHT30;55104;47.356;19.448;2023-03-01T09:07:26;7.19;61.05
68274;SHT30;55104;47.356;19.448;2023-03-01T09:10:30;7.12;61.04
68274;SHT30;55104;47.356;19.448;2023-03-01T09:13:34;7.25;60.43
68274;SHT30;55104;47.356;19.448;2023-03-01T09:16:36;7.14;60.37
68274;SHT30;55104;47.356;19.448;2023-03-01T09:19:38;7.04;60.96
68274;SHT30;55104;47.356;19.448;2023-03-01T09:22:40;7.22;61.58
68274;SHT30;55104;47.356;19.448;2023-03-01T09:25:42;7.43;61.05
68274;SHT30;55104;47.356;19.448;2023-03-01T09:28:45;7.56;60.96
68274;SHT30;55104;47.356;19.448;2023-03-01T09:31:48;7.85;60.53
68274;SHT30;55104;47.356;19.448;2023-03-01T09:34:50;7.94;59.61
68274;SHT30;55104;47.356;19.448;2023-03-01T09:38:07;7.98;60.29
68274;SHT30;55104;47.356;19.448;2023-03-01T09:41:38;8.03;59.84
68274;SHT30;55104;47.356;19.448;2023-03-01T09:44:49;8.05;59.19
68274;SHT30;55104;47.356;19.448;2023-03-01T09:47:53;8.11;59.81
68274;SHT30;55104;47.356;19.448;2023-03-01T09:51:00;8.05;59.92
68274;SHT30;55104;47.356;19.448;2023-03-01T09:54:09;8.08;59.58
68274;SHT30;55104;47.356;19.448;2023-03-01T09:57:45;8.29;58.77
68274;SHT30;55104;47.356;19.448;2023-03-01T10:00:50;8.36;58.79
68274;SHT30;55104;47.356;19.448;2023-03-01T10:04:09;8.59;58.77
68274;SHT30;55104;47.356;19.448;2023-03-01T10:10:37;8.63;57.54
68274;SHT30;55104;47.356;19.448;2023-03-01T10:14:05;8.97;57.54
68274;SHT30;55104;47.356;19.448;2023-03-01T10:18:12;8.71;57.54
68274;SHT30;55104;47.356;19.448;2023-03-01T10:21:01;8.83;57.67
68274;SHT30;55104;47.356;19.448;2023-03-01T10:24:14;8.83;57.96
68274;SHT30;55104;47.356;19.448;2023-03-01T10:27:24;8.95;57.09
68274;SHT30;55104;47.356;19.448;2023-03-01T10:30:39;9.07;57.35
68274;SHT30;55104;47.356;19.448;2023-03-01T10:33:43;9.18;56.65
68274;SHT30;55104;47.356;19.448;2023-03-01T10:36:50;9.21;56.39
68274;SHT30;55104;47.356;19.448;2023-03-01T10:43:11;9.84;55.71
68274;SHT30;55104;47.356;19.448;2023-03-01T10:49:28;9.56;55.88
68274;SHT30;55104;47.356;19.448;2023-03-01T10:52:36;9.93;56.00
68274;SHT30;55104;47.356;19.448;2023-03-01T10:55:39;10.08;55.58
68274;SHT30;55104;47.356;19.448;2023-03-01T10:59:03;10.16;54.41
68274;SHT30;55104;47.356;19.448;2023-03-01T11:02:15;10.31;55.74
68274;SHT30;55104;47.356;19.448;2023-03-01T11:05:26;10.56;55.18
68274;SHT30;55104;47.356;19.448;2023-03-01T11:08:43;11.10;53.42
68274;SHT30;55104;47.356;19.448;2023-03-01T11:11:46;11.01;54.27
68274;SHT30;55104;47.356;19.448;2023-03-01T11:14:54;11.35;53.27
68274;SHT30;55104;47.356;19.448;2023-03-01T11:17:57;11.35;53.50
68274;SHT30;55104;47.356;19.448;2023-03-01T11:21:15;11.26;53.48
68274;SHT30;55104;47.356;19.448;2023-03-01T11:24:18;10.98;53.32
68274;SHT30;55104;47.356;19.448;2023-03-01T11:27:36;10.90;54.31
68274;SHT30;55104;47.356;19.448;2023-03-01T11:31:00;11.03;54.37
68274;SHT30;55104;47.356;19.448;2023-03-01T11:34:34;11.22;55.26
68274;SHT30;55104;47.356;19.448;2023-03-01T11:37:44;10.87;55.48
68274;SHT30;55104;47.356;19.448;2023-03-01T11:41:20;11.26;54.68
68274;SHT30;55104;47.356;19.448;2023-03-01T11:44:26;11.31;55.34
68274;SHT30;55104;47.356;19.448;2023-03-01T11:47:38;11.21;56.10
68274;SHT30;55104;47.356;19.448;2023-03-01T11:50:47;11.52;55.35
68274;SHT30;55104;47.356;19.448;2023-03-01T11:57:00;11.77;54.10
68274;SHT30;55104;47.356;19.448;2023-03-01T12:10:44;12.14;53.87
68274;SHT30;55104;47.356;19.448;2023-03-01T12:20:30;11.46;55.69
68274;SHT30;55104;47.356;19.448;2023-03-01T12:24:00;11.74;56.02
68274;SHT30;55104;47.356;19.448;2023-03-01T12:43:49;11.84;55.74
68274;SHT30;55104;47.356;19.448;2023-03-01T12:50:31;11.93;55.58
68274;SHT30;55104;47.356;19.448;2023-03-01T12:53:40;12.04;55.45
68274;SHT30;55104;47.356;19.448;2023-03-01T12:56:43;11.97;53.88
68274;SHT30;55104;47.356;19.448;2023-03-01T13:00:25;12.17;54.54
68274;SHT30;55104;47.356;19.448;2023-03-01T13:03:51;12.01;54.47
68274;SHT30;55104;47.356;19.448;2023-03-01T13:13:26;12.20;54.02
68274;SHT30;55104;47.356;19.448;2023-03-01T13:19:31;12.14;53.05
68274;SHT30;55104;47.356;19.448;2023-03-01T13:22:37;12.28;53.20
68274;SHT30;55104;47.356;19.448;2023-03-01T13:26:06;12.20;54.09
68274;SHT30;55104;47.356;19.448;2023-03-01T13:29:25;12.24;53.51
68274;SHT30;55104;47.356;19.448;2023-03-01T13:32:35;12.04;52.96
68274;SHT30;55104;47.356;19.448;2023-03-01T13:35:46;12.13;53.50
68274;SHT30;55104;47.356;19.448;2023-03-01T13:38:56;12.24;53.59
68274;SHT30;55104;47.356;19.448;2023-03-01T13:42:01;12.24;53.71
68274;SHT30;55104;47.356;19.448;2023-03-01T13:45:14;12.18;53.76
68274;SHT30;55104;47.356;19.448;2023-03-01T13:48:24;11.95;53.44
68274;SHT30;55104;47.356;19.448;2023-03-01T13:51:27;11.94;54.62
68274;SHT30;55104;47.356;19.448;2023-03-01T13:54:32;12.08;54.46
68274;SHT30;55104;47.356;19.448;2023-03-01T13:57:36;12.22;54.38
68274;SHT30;55104;47.356;19.448;2023-03-01T14:00:42;12.33;53.65
68274;SHT30;55104;47.356;19.448;2023-03-01T14:03:44;12.43;54.37
68274;SHT30;55104;47.356;19.448;2023-03-01T14:06:46;12.32;53.58
68274;SHT30;55104;47.356;19.448;2023-03-01T14:09:52;12.17;54.61
68274;SHT30;55104;47.356;19.448;2023-03-01T14:13:01;12.08;54.48
68274;SHT30;55104;47.356;19.448;2023-03-01T14:16:28;11.91;55.27
68274;SHT30;55104;47.356;19.448;2023-03-01T14:19:34;11.83;55.96
68274;SHT30;55104;47.356;19.448;2023-03-01T14:22:36;11.77;55.32
68274;SHT30;55104;47.356;19.448;2023-03-01T14:28:50;11.49;56.69
68274;SHT30;55104;47.356;19.448;2023-03-01T14:31:53;11.29;56.89
68274;SHT30;55104;47.356;19.448;2023-03-01T14:34:56;11.38;56.58
68274;SHT30;55104;47.356;19.448;2023-03-01T14:37:58;11.39;57.13
68274;SHT30;55104;47.356;19.448;2023-03-01T14:41:06;11.29;57.08
68274;SHT30;55104;47.356;19.448;2023-03-01T14:44:19;11.32;57.50
68274;SHT30;55104;47.356;19.448;2023-03-01T14:47:35;11.07;58.47
68274;SHT30;55104;47.356;19.448;2023-03-01T14:50:43;10.93;58.31
68274;SHT30;55104;47.356;19.448;2023-03-01T14:53:46;10.90;59.12
68274;SHT30;55104;47.356;19.448;2023-03-01T14:56:53;10.90;58.71
68274;SHT30;55104;47.356;19.448;2023-03-01T14:59:58;10.83;58.67
68274;SHT30;55104;47.356;19.448;2023-03-01T15:03:22;10.80;58.71
68274;SHT30;55104;47.356;19.448;2023-03-01T15:06:25;10.74;58.26
68274;SHT30;55104;47.356;19.448;2023-03-01T15:09:27;10.71;58.80
68274;SHT30;55104;47.356;19.448;2023-03-01T15:12:37;10.64;58.80
68274;SHT30;55104;47.356;19.448;2023-03-01T15:15:47;10.68;58.98
68274;SHT30;55104;47.356;19.448;2023-03-01T15:21:55;10.57;58.45
68274;SHT30;55104;47.356;19.448;2023-03-01T15:24:57;10.48;58.93
68274;SHT30;55104;47.356;19.448;2023-03-01T15:28:01;10.56;57.98
68274;SHT30;55104;47.356;19.448;2023-03-01T15:31:27;10.56;57.93
68274;SHT30;55104;47.356;19.448;2023-03-01T15:34:32;10.49;57.73
68274;SHT30;55104;47.356;19.448;2023-03-01T15:37:46;10.39;57.74
68274;SHT30;55104;47.356;19.448;2023-03-01T15:40:50;10.33;57.56
68274;SHT30;55104;47.356;19.448;2023-03-01T15:43:54;10.23;57.91
68274;SHT30;55104;47.356;19.448;2023-03-01T15:46:57;10.16;58.52
68274;SHT30;55104;47.356;19.448;2023-03-01T15:50:01;10.06;58.59
68274;SHT30;55104;47.356;19.448;2023-03-01T15:53:11;9.97;58.50
68274;SHT30;55104;47.356;19.448;2023-03-01T15:56:14;9.85;58.98
68274;SHT30;55104;47.356;19.448;2023-03-01T15:59:17;9.71;59.21
68274;SHT30;55104;47.356;19.448;2023-03-01T16:02:20;9.57;59.47
68274;SHT30;55104;47.356;19.448;2023-03-01T16:05:26;9.44;60.13
68274;SHT30;55104;47.356;19.448;2023-03-01T16:08:29;9.32;60.53
68274;SHT30;55104;47.356;19.448;2023-03-01T16:11:31;9.16;60.73
68274;SHT30;55104;47.356;19.448;2023-03-01T16:14:34;9.02;61.34
68274;SHT30;55104;47.356;19.448;2023-03-01T16:17:36;8.88;61.74
68274;SHT30;55104;47.356;19.448;2023-03-01T16:20:39;8.68;62.41
68274;SHT30;55104;47.356;19.448;2023-03-01T16:23:43;8.59;62.57
68274;SHT30;55104;47.356;19.448;2023-03-01T16:26:45;8.36;63.05
68274;SHT30;55104;47.356;19.448;2023-03-01T16:29:47;8.19;63.38
68274;SHT30;55104;47.356;19.448;2023-03-01T16:32:50;8.05;64.00
68274;SHT30;55104;47.356;19.448;2023-03-01T16:35:52;7.85;64.87
68274;SHT30;55104;47.356;19.448;2023-03-01T16:38:55;7.75;64.98
68274;SHT30;55104;47.356;19.448;2023-03-01T16:42:00;7.63;65.40
68274;SHT30;55104;47.356;19.448;2023-03-01T16:45:03;7.47;65.80
68274;SHT30;55104;47.356;19.448;2023-03-01T16:48:15;7.32;66.52
68274;SHT30;55104;47.356;19.448;2023-03-01T16:51:17;7.12;67.30
68274;SHT30;55104;47.356;19.448;2023-03-01T16:54:20;6.95;67.25
68274;SHT30;55104;47.356;19.448;2023-03-01T16:57:22;6.81;67.90
68274;SHT30;55104;47.356;19.448;2023-03-01T17:00:26;6.69;68.27
68274;SHT30;55104;47.356;19.448;2023-03-01T17:03:28;6.54;69.48
68274;SHT30;55104;47.356;19.448;2023-03-01T17:06:31;6.40;69.45
68274;SHT30;55104;47.356;19.448;2023-03-01T17:09:35;6.30;69.95
68274;SHT30;55104;47.356;19.448;2023-03-01T17:12:38;6.25;70.49
68274;SHT30;55104;47.356;19.448;2023-03-01T17:15:41;6.22;70.11
68274;SHT30;55104;47.356;19.448;2023-03-01T17:18:43;6.11;71.04
68274;SHT30;55104;47.356;19.448;2023-03-01T17:21:45;5.98;71.23
68274;SHT30;55104;47.356;19.448;2023-03-01T17:24:47;5.91;71.04
68274;SHT30;55104;47.356;19.448;2023-03-01T17:27:49;5.77;71.52
68274;SHT30;55104;47.356;19.448;2023-03-01T17:30:52;5.69;71.63
68274;SHT30;55104;47.356;19.448;2023-03-01T17:33:54;5.66;72.41
68274;SHT30;55104;47.356;19.448;2023-03-01T17:37:00;5.60;72.19
68274;SHT30;55104;47.356;19.448;2023-03-01T17:40:02;5.54;72.30
68274;SHT30;55104;47.356;19.448;2023-03-01T17:43:05;5.46;72.32
68274;SHT30;55104;47.356;19.448;2023-03-01T17:46:07;5.39;72.78
68274;SHT30;55104;47.356;19.448;2023-03-01T17:49:10;5.29;73.12
68274;SHT30;55104;47.356;19.448;2023-03-01T17:52:12;5.26;73.51
68274;SHT30;55104;47.356;19.448;2023-03-01T17:55:14;5.21;73.79
68274;SHT30;55104;47.356;19.448;2023-03-01T17:58:16;5.18;73.84
68274;SHT30;55104;47.356;19.448;2023-03-01T18:01:23;5.16;74.03
68274;SHT30;55104;47.356;19.448;2023-03-01T18:04:26;5.09;74.26
68274;SHT30;55104;47.356;19.448;2023-03-01T18:07:29;5.01;74.54
68274;SHT30;55104;47.356;19.448;2023-03-01T18:10:32;4.94;74.38
68274;SHT30;55104;47.356;19.448;2023-03-01T18:13:37;4.83;75.25
68274;SHT30;55104;47.356;19.448;2023-03-01T18:16:40;4.80;75.39
68274;SHT30;55104;47.356;19.448;2023-03-01T18:19:42;4.76;75.62
68274;SHT30;55104;47.356;19.448;2023-03-01T18:22:45;4.76;75.40
68274;SHT30;55104;47.356;19.448;2023-03-01T18:25:47;4.81;75.23
68274;SHT30;55104;47.356;19.448;2023-03-01T18:28:50;4.77;75.01
68274;SHT30;55104;47.356;19.448;2023-03-01T18:31:52;4.66;74.91
68274;SHT30;55104;47.356;19.448;2023-03-01T18:34:55;4.54;75.19
68274;SHT30;55104;47.356;19.448;2023-03-01T18:37:57;4.43;75.28
68274;SHT30;55104;47.356;19.448;2023-03-01T18:40:59;4.30;75.28
68274;SHT30;55104;47.356;19.448;2023-03-01T18:44:02;4.32;76.53
68274;SHT30;55104;47.356;19.448;2023-03-01T18:47:05;4.32;76.43
68274;SHT30;55104;47.356;19.448;2023-03-01T18:50:08;4.32;76.51
68274;SHT30;55104;47.356;19.448;2023-03-01T18:53:11;4.32;76.50
68274;SHT30;55104;47.356;19.448;2023-03-01T18:56:14;4.35;76.30
68274;SHT30;55104;47.356;19.448;2023-03-01T18:59:16;4.39;76.17
68274;SHT30;55104;47.356;19.448;2023-03-01T19:02:18;4.53;75.90
68274;SHT30;55104;47.356;19.448;2023-03-01T19:05:20;4.64;75.43
68274;SHT30;55104;47.356;19.448;2023-03-01T19:08:22;4.60;75.25
68274;SHT30;55104;47.356;19.448;2023-03-01T19:11:25;4.64;75.52
68274;SHT30;55104;47.356;19.448;2023-03-01T19:14:31;4.66;75.41
68274;SHT30;55104;47.356;19.448;2023-03-01T19:17:34;4.66;75.43
68274;SHT30;55104;47.356;19.448;2023-03-01T19:20:36;4.68;75.48
68274;SHT30;55104;47.356;19.448;2023-03-01T19:23:40;4.68;75.64
68274;SHT30;55104;47.356;19.448;2023-03-01T19:26:42;4.67;75.34
68274;SHT30;55104;47.356;19.448;2023-03-01T19:29:44;4.64;75.51
68274;SHT30;55104;47.356;19.448;2023-03-01T19:32:46;4.52;75.82
68274;SHT30;55104;47.356;19.448;2023-03-01T19:35:48;4.43;75.91
68274;SHT30;55104;47.356;19.448;2023-03-01T19:38:52;4.30;76.34
68274;SHT30;55104;47.356;19.448;2023-03-01T19:41:54;4.22;76.93
68274;SHT30;55104;47.356;19.448;2023-03-01T19:44:57;4.15;76.95
68274;SHT30;55104;47.356;19.448;2023-03-01T19:48:00;4.05;77.18
68274;SHT30;55104;47.356;19.448;2023-03-01T19:51:02;3.93;77.72
68274;SHT30;55104;47.356;19.448;2023-03-01T19:54:05;3.77;78.05
68274;SHT30;55104;47.356;19.448;2023-03-01T19:57:07;3.69;78.60
68274;SHT30;55104;47.356;19.448;2023-03-01T20:00:10;3.59;79.26
68274;SHT30;55104;47.356;19.448;2023-03-01T20:03:16;3.52;79.23
68274;SHT30;55104;47.356;19.448;2023-03-01T20:06:19;3.49;79.69
68274;SHT30;55104;47.356;19.448;2023-03-01T20:09:22;3.35;79.10
68274;SHT30;55104;47.356;19.448;2023-03-01T20:12:24;3.25;79.98
68274;SHT30;55104;47.356;19.448;2023-03-01T20:15:26;3.13;80.21
68274;SHT30;55104;47.356;19.448;2023-03-01T20:18:28;3.05;80.22
68274;SHT30;55104;47.356;19.448;2023-03-01T20:21:31;2.95;79.89
68274;SHT30;55104;47.356;19.448;2023-03-01T20:24:34;2.83;80.63
68274;SHT30;55104;47.356;19.448;2023-03-01T20:27:36;2.79;80.51
68274;SHT30;55104;47.356;19.448;2023-03-01T20:30:41;2.66;80.89
68274;SHT30;55104;47.356;19.448;2023-03-01T20:33:43;2.56;81.28
68274;SHT30;55104;47.356;19.448;2023-03-01T20:36:45;2.47;81.55